Time,TemperatureF,DewpointF,PressureIn,WindDirection,WindDirectionDegrees,WindSpeedMPH,WindSpeedGustMPH,Humidity,HourlyPrecipIn,Conditions,Clouds,dailyrainin,SolarRadiationWatts/m^2,SoftwareType,DateUTC
2013-01-28 00:03:00,67.4,62.0,30.28,ENE,65,0.0,4.0,84,0.00,,,0.00,0,weatherlink.com 1.10,2013-01-28 05:03:00,
2013-01-28 00:19:00,67.3,62.0,30.28,East,96,1.0,6.0,84,0.00,,,0.00,0,weatherlink.com 1.10,2013-01-28 05:19:00,
2013-01-28 00:33:00,67.3,62.0,30.28,East,92,0.0,3.0,84,0.00,,,0.00,0,weatherlink.com 1.10,2013-01-28 05:33:00,
2013-01-28 00:49:00,67.3,62.0,30.28,ENE,64,0.0,3.0,84,0.00,,,0.00,0,weatherlink.com 1.10,2013-01-28 05:49:00,
2013-01-28 01:04:00,67.2,62.0,30.28,ENE,74,0.0,3.0,84,0.00,,,0.00,0,weatherlink.com 1.10,2013-01-28 06:04:00,
2013-01-28 01:19:00,66.9,62.0,30.28,East,92,0.0,3.0,84,0.00,,,0.00,0,weatherlink.com 1.10,2013-01-28 06:19:00,
2013-01-28 01:33:00,66.7,62.0,30.28,ENE,64,0.0,5.0,84,0.00,,,0.00,0,weatherlink.com 1.10,2013-01-28 06:33:00,
2013-01-28 01:49:00,66.8,62.0,30.27,East,94,0.0,5.0,84,0.00,,,0.00,0,weatherlink.com 1.10,2013-01-28 06:49:00,
2013-01-28 02:04:00,66.7,62.0,30.27,SSE,148,0.0,2.0,84,0.00,,,0.00,0,weatherlink.com 1.10,2013-01-28 07:04:00,
2013-01-28 02:19:00,66.5,62.0,30.27,ESE,107,0.0,2.0,84,0.00,,,0.00,0,weatherlink.com 1.10,2013-01-28 07:19:00,
2013-01-28 02:34:00,66.2,62.0,30.27,ESE,106,0.0,1.0,85,0.00,,,0.00,0,weatherlink.com 1.10,2013-01-28 07:34:00,
2013-01-28 02:49:00,65.8,61.0,30.27,ESE,106,0.0,1.0,85,0.00,,,0.00,0,weatherlink.com 1.10,2013-01-28 07:49:00,
2013-01-28 03:04:00,65.6,61.0,30.27,ESE,107,0.0,1.0,86,0.00,,,0.00,0,weatherlink.com 1.10,2013-01-28 08:04:00,
2013-01-28 03:19:00,65.4,61.0,30.27,ESE,107,0.0,1.0,86,0.00,,,0.00,0,weatherlink.com 1.10,2013-01-28 08:19:00,
2013-01-28 03:34:00,65.1,61.0,30.27,ESE,107,1.0,1.0,86,0.00,,,0.00,0,weatherlink.com 1.10,2013-01-28 08:34:00,
2013-01-28 03:49:00,64.7,61.0,30.27,ESE,106,0.0,1.0,87,0.00,,,0.00,0,weatherlink.com 1.10,2013-01-28 08:49:00,
2013-01-28 04:04:00,64.2,60.0,30.27,ESE,107,0.0,2.0,87,0.00,,,0.00,0,weatherlink.com 1.10,2013-01-28 09:04:00,
2013-01-28 04:19:00,63.8,60.0,30.27,ESE,107,0.0,1.0,88,0.00,,,0.00,0,weatherlink.com 1.10,2013-01-28 09:19:00,
2013-01-28 04:34:00,63.5,60.0,30.26,ESE,107,0.0,1.0,89,0.00,,,0.00,0,weatherlink.com 1.10,2013-01-28 09:34:00,
2013-01-28 04:49:00,63.2,60.0,30.26,ESE,107,0.0,1.0,89,0.00,,,0.00,0,weatherlink.com 1.10,2013-01-28 09:49:00,
2013-01-28 05:04:00,62.9,60.0,30.26,ESE,106,0.0,0.0,90,0.00,,,0.00,0,weatherlink.com 1.10,2013-01-28 10:04:00,
2013-01-28 05:19:00,62.8,60.0,30.26,ESE,107,0.0,1.0,90,0.00,,,0.00,0,weatherlink.com 1.10,2013-01-28 10:19:00,
2013-01-28 05:34:00,62.9,60.0,30.27,ESE,108,0.0,2.0,91,0.00,,,0.00,0,weatherlink.com 1.10,2013-01-28 10:34:00,
2013-01-28 05:49:00,63.2,61.0,30.27,ESE,106,0.0,2.0,91,0.00,,,0.00,0,weatherlink.com 1.10,2013-01-28 10:49:00,
2013-01-28 06:04:00,63.4,61.0,30.27,ESE,107,0.0,2.0,91,0.00,,,0.00,0,weatherlink.com 1.10,2013-01-28 11:04:00,
2013-01-28 06:19:00,63.5,61.0,30.28,East,90,0.0,1.0,91,0.00,,,0.00,0,weatherlink.com 1.10,2013-01-28 11:19:00,
2013-01-28 06:34:00,63.5,61.0,30.29,East,89,0.0,1.0,90,0.00,,,0.00,0,weatherlink.com 1.10,2013-01-28 11:34:00,
2013-01-28 06:49:00,63.3,60.0,30.29,East,88,0.0,1.0,90,0.00,,,0.00,0,weatherlink.com 1.10,2013-01-28 11:49:00,
2013-01-28 07:04:00,63.0,60.0,30.29,East,88,0.0,1.0,90,0.00,,,0.00,0,weatherlink.com 1.10,2013-01-28 12:04:00,
2013-01-28 07:19:00,62.8,60.0,30.30,East,88,0.0,1.0,90,0.00,,,0.00,7,weatherlink.com 1.10,2013-01-28 12:19:00,
2013-01-28 07:34:00,62.7,60.0,30.30,East,88,0.0,1.0,91,0.00,,,0.00,23,weatherlink.com 1.10,2013-01-28 12:34:00,
2013-01-28 07:49:00,62.9,60.0,30.30,East,90,0.0,1.0,91,0.00,,,0.00,30,weatherlink.com 1.10,2013-01-28 12:49:00,
2013-01-28 08:04:00,63.1,61.0,30.30,East,88,0.0,1.0,91,0.00,,,0.00,35,weatherlink.com 1.10,2013-01-28 13:04:00,
2013-01-28 08:19:00,63.6,61.0,30.30,East,92,0.0,5.0,91,0.00,,,0.00,70,weatherlink.com 1.10,2013-01-28 13:19:00,
2013-01-28 08:34:00,64.9,62.0,30.30,East,85,1.0,3.0,91,0.00,,,0.00,163,weatherlink.com 1.10,2013-01-28 13:34:00,
2013-01-28 08:49:00,67.1,63.0,30.31,ESE,110,0.0,3.0,87,0.00,,,0.00,132,weatherlink.com 1.10,2013-01-28 13:49:00,
2013-01-28 09:04:00,69.5,63.0,30.30,South,180,1.0,5.0,81,0.00,,,0.00,294,weatherlink.com 1.10,2013-01-28 14:04:00,
2013-01-28 09:19:00,71.3,63.0,30.31,SE,132,0.0,7.0,76,0.00,,,0.00,339,weatherlink.com 1.10,2013-01-28 14:19:00,
2013-01-28 09:35:00,72.8,64.0,30.32,SSE,153,7.0,10.0,73,0.00,,,0.00,392,weatherlink.com 1.10,2013-01-28 14:35:00,
2013-01-28 09:50:00,73.4,63.0,30.32,South,169,2.0,9.0,71,0.00,,,0.00,434,weatherlink.com 1.10,2013-01-28 14:50:00,
2013-01-28 10:05:00,74.0,63.0,30.32,SSE,155,2.0,10.0,69,0.00,,,0.00,476,weatherlink.com 1.10,2013-01-28 15:05:00,
2013-01-28 10:20:00,74.8,63.0,30.32,SE,136,3.0,11.0,67,0.00,,,0.00,555,weatherlink.com 1.10,2013-01-28 15:20:00,
2013-01-28 10:35:00,75.4,63.0,30.32,South,183,4.0,11.0,66,0.00,,,0.00,652,weatherlink.com 1.10,2013-01-28 15:35:00,
2013-01-28 10:50:00,75.3,63.0,30.32,SSE,164,3.0,12.0,66,0.00,,,0.00,171,weatherlink.com 1.10,2013-01-28 15:50:00,
2013-01-28 11:05:00,76.5,63.0,30.32,ESE,103,4.0,9.0,63,0.00,,,0.00,272,weatherlink.com 1.10,2013-01-28 16:05:00,
2013-01-28 11:20:00,75.5,63.0,30.32,SE,130,0.0,9.0,65,0.00,,,0.00,149,weatherlink.com 1.10,2013-01-28 16:20:00,
2013-01-28 11:35:00,75.3,63.0,30.32,SE,140,7.0,9.0,65,0.00,,,0.00,241,weatherlink.com 1.10,2013-01-28 16:35:00,
2013-01-28 11:50:00,75.5,63.0,30.31,ESE,111,10.0,10.0,65,0.00,,,0.00,269,weatherlink.com 1.10,2013-01-28 16:50:00,
2013-01-28 12:05:00,75.6,63.0,30.30,ENE,74,2.0,11.0,65,0.00,,,0.00,213,weatherlink.com 1.10,2013-01-28 17:05:00,
2013-01-28 12:20:00,75.3,63.0,30.30,North,10,3.0,9.0,66,0.00,,,0.00,283,weatherlink.com 1.10,2013-01-28 17:20:00,
2013-01-28 12:35:00,75.4,63.0,30.29,SSE,165,4.0,10.0,66,0.00,,,0.00,385,weatherlink.com 1.10,2013-01-28 17:35:00,
2013-01-28 12:50:00,76.7,63.0,30.28,SE,125,3.0,10.0,63,0.00,,,0.00,359,weatherlink.com 1.10,2013-01-28 17:50:00,
2013-01-28 13:05:00,76.8,63.0,30.27,East,99,2.0,7.0,62,0.00,,,0.00,506,weatherlink.com 1.10,2013-01-28 18:05:00,
2013-01-28 13:20:00,77.6,63.0,30.26,South,176,6.0,14.0,61,0.00,,,0.00,570,weatherlink.com 1.10,2013-01-28 18:20:00,
2013-01-28 13:35:00,76.5,63.0,30.26,East,87,0.0,13.0,63,0.00,,,0.00,373,weatherlink.com 1.10,2013-01-28 18:35:00,
2013-01-28 13:50:00,77.3,63.0,30.25,SSW,202,5.0,9.0,62,0.00,,,0.00,267,weatherlink.com 1.10,2013-01-28 18:50:00,
2013-01-28 14:05:00,76.4,63.0,30.25,East,87,3.0,11.0,64,0.00,,,0.00,149,weatherlink.com 1.10,2013-01-28 19:05:00,
2013-01-28 14:20:00,76.0,63.0,30.24,SE,137,6.0,9.0,64,0.00,,,0.00,227,weatherlink.com 1.10,2013-01-28 19:20:00,
2013-01-28 14:35:00,75.9,63.0,30.24,SE,142,6.0,12.0,65,0.00,,,0.00,241,weatherlink.com 1.10,2013-01-28 19:35:00,
2013-01-28 14:50:00,75.6,63.0,30.23,ENE,69,1.0,10.0,66,0.00,,,0.00,388,weatherlink.com 1.10,2013-01-28 19:50:00,
2013-01-28 15:05:00,76.0,63.0,30.23,SSE,153,3.0,9.0,65,0.00,,,0.00,355,weatherlink.com 1.10,2013-01-28 20:05:00,
2013-01-28 15:20:00,75.8,64.0,30.23,SSE,165,2.0,7.0,66,0.00,,,0.00,156,weatherlink.com 1.10,2013-01-28 20:20:00,
2013-01-28 15:36:00,75.3,64.0,30.23,NE,45,1.0,7.0,68,0.00,,,0.00,121,weatherlink.com 1.10,2013-01-28 20:36:00,
2013-01-28 15:51:00,74.8,63.0,30.23,East,94,5.0,12.0,67,0.00,,,0.00,158,weatherlink.com 1.10,2013-01-28 20:51:00,
2013-01-28 16:05:00,74.7,63.0,30.23,SSE,148,2.0,9.0,68,0.00,,,0.00,192,weatherlink.com 1.10,2013-01-28 21:05:00,
2013-01-28 16:21:00,74.6,64.0,30.23,ESE,118,0.0,8.0,69,0.00,,,0.00,98,weatherlink.com 1.10,2013-01-28 21:21:00,
2013-01-28 16:36:00,74.0,63.0,30.23,SE,140,1.0,8.0,69,0.00,,,0.00,86,weatherlink.com 1.10,2013-01-28 21:36:00,
2013-01-28 16:50:00,73.7,63.0,30.23,East,82,1.0,9.0,70,0.00,,,0.00,107,weatherlink.com 1.10,2013-01-28 21:50:00,
2013-01-28 17:05:00,73.5,63.0,30.23,ESE,107,3.0,8.0,70,0.00,,,0.00,109,weatherlink.com 1.10,2013-01-28 22:05:00,
2013-01-28 17:20:00,73.0,63.0,30.23,ESE,115,1.0,7.0,70,0.00,,,0.00,39,weatherlink.com 1.10,2013-01-28 22:20:00,
2013-01-28 17:35:00,72.5,63.0,30.24,ESE,102,0.0,5.0,72,0.00,,,0.00,25,weatherlink.com 1.10,2013-01-28 22:35:00,
2013-01-28 17:50:00,72.1,63.0,30.24,East,87,0.0,3.0,74,0.00,,,0.00,11,weatherlink.com 1.10,2013-01-28 22:50:00,
2013-01-28 18:05:00,71.7,63.0,30.23,SE,136,1.0,2.0,75,0.00,,,0.00,0,weatherlink.com 1.10,2013-01-28 23:05:00,
2013-01-28 18:21:00,71.3,63.0,30.24,East,87,2.0,5.0,76,0.00,,,0.00,0,weatherlink.com 1.10,2013-01-28 23:21:00,
2013-01-28 18:35:00,71.0,63.0,30.25,East,87,0.0,2.0,76,0.00,,,0.00,0,weatherlink.com 1.10,2013-01-28 23:35:00,
2013-01-28 18:51:00,70.6,63.0,30.24,East,86,0.0,3.0,77,0.00,,,0.00,0,weatherlink.com 1.10,2013-01-28 23:51:00,
2013-01-28 19:05:00,70.1,63.0,30.25,East,86,0.0,1.0,78,0.00,,,0.00,0,weatherlink.com 1.10,2013-01-29 00:05:00,
2013-01-28 19:20:00,69.6,63.0,30.25,East,86,0.0,1.0,79,0.00,,,0.00,0,weatherlink.com 1.10,2013-01-29 00:20:00,
2013-01-28 19:36:00,69.2,63.0,30.24,ESE,115,0.0,2.0,80,0.00,,,0.00,0,weatherlink.com 1.10,2013-01-29 00:36:00,
2013-01-28 19:51:00,68.9,63.0,30.25,ESE,115,0.0,2.0,81,0.00,,,0.00,0,weatherlink.com 1.10,2013-01-29 00:51:00,
2013-01-28 20:05:00,68.5,63.0,30.25,ESE,115,0.0,1.0,82,0.00,,,0.00,0,weatherlink.com 1.10,2013-01-29 01:05:00,
2013-01-28 20:21:00,68.2,63.0,30.25,ESE,115,0.0,1.0,83,0.00,,,0.00,0,weatherlink.com 1.10,2013-01-29 01:21:00,
2013-01-28 20:35:00,67.9,63.0,30.25,SE,125,0.0,2.0,84,0.00,,,0.00,0,weatherlink.com 1.10,2013-01-29 01:35:00,
2013-01-28 20:50:00,67.7,63.0,30.25,SE,136,0.0,2.0,85,0.00,,,0.00,0,weatherlink.com 1.10,2013-01-29 01:50:00,
2013-01-28 21:05:00,67.3,63.0,30.26,SE,136,0.0,1.0,85,0.00,,,0.00,0,weatherlink.com 1.10,2013-01-29 02:05:00,
2013-01-28 21:20:00,67.0,63.0,30.26,ESE,116,0.0,2.0,86,0.00,,,0.00,0,weatherlink.com 1.10,2013-01-29 02:20:00,
2013-01-28 21:35:00,66.8,63.0,30.26,ESE,116,0.0,3.0,86,0.00,,,0.00,0,weatherlink.com 1.10,2013-01-29 02:35:00,
2013-01-28 21:51:00,66.9,63.0,30.26,East,92,0.0,5.0,87,0.00,,,0.00,0,weatherlink.com 1.10,2013-01-29 02:51:00,
2013-01-28 22:06:00,66.9,63.0,30.26,East,88,0.0,3.0,87,0.00,,,0.00,0,weatherlink.com 1.10,2013-01-29 03:06:00,
2013-01-28 22:21:00,66.8,63.0,30.26,ESE,111,0.0,3.0,87,0.00,,,0.00,0,weatherlink.com 1.10,2013-01-29 03:21:00,
2013-01-28 22:36:00,66.6,63.0,30.26,East,99,0.0,2.0,87,0.00,,,0.00,0,weatherlink.com 1.10,2013-01-29 03:36:00,
2013-01-28 22:51:00,66.4,63.0,30.26,ESE,107,0.0,3.0,88,0.00,,,0.00,0,weatherlink.com 1.10,2013-01-29 03:51:00,
2013-01-28 23:06:00,66.1,63.0,30.25,ESE,107,0.0,1.0,88,0.00,,,0.00,0,weatherlink.com 1.10,2013-01-29 04:06:00,
2013-01-28 23:21:00,65.7,62.0,30.25,ESE,107,0.0,1.0,88,0.00,,,0.00,0,weatherlink.com 1.10,2013-01-29 04:21:00,
2013-01-28 23:36:00,65.4,62.0,30.25,ESE,107,0.0,0.0,89,0.00,,,0.00,0,weatherlink.com 1.10,2013-01-29 04:36:00,
2013-01-28 23:51:00,65.2,62.0,30.25,ESE,106,0.0,1.0,89,0.00,,,0.00,0,weatherlink.com 1.10,2013-01-29 04:51:00,